EWG5WA EDDK-LSGG
Flight info
| Callsign | EWG5WA |
|---|---|
| Flight time | N/A |
| Altitude | 30000 |
| Route | KUMIK1R/31R KUMIK Y854 BOMBI DCT GIGET DCT ABUKA/N0448F310 DCT BANUX/N0449F300 DCT KRH DCT NATOR/N0450F310 DCT LUTIX DCT BENOT |
| Aircraft | A320/M-SDE3FGHIRWY/LB1 |
Departure
| Time | 2026-04-24 19:08 |
|---|---|
| Airport | Cologne Bonn Airport (EDDK) |
Arrival
| Time | N/A |
|---|---|
| Airport | Geneva International Airport (LSGG) |
| Time | Latitude | Longitude | Altitude | Speed | Heading |
|---|---|---|---|---|---|
| 2026-04-24 18:54 | 50.87964 | 7.12416 | 232 ft | 0 kts | 246° |
| 2026-04-24 18:59 | 50.87965 | 7.12420 | 232 ft | 2 kts | 246° |
| 2026-04-24 18:59 | 50.87972 | 7.12446 | 232 ft | 3 kts | 246° |
| 2026-04-24 18:59 | 50.87979 | 7.12471 | 236 ft | 3 kts | 233° |
| 2026-04-24 18:59 | 50.87992 | 7.12487 | 233 ft | 3 kts | 175° |
| 2026-04-24 19:00 | 50.88004 | 7.12483 | 236 ft | 3 kts | 152° |
| 2026-04-24 19:00 | 50.88023 | 7.12463 | 235 ft | 1 kts | 138° |
| 2026-04-24 19:00 | 50.88024 | 7.12462 | 234 ft | 0 kts | 138° |
| 2026-04-24 19:03 | 50.88013 | 7.12477 | 232 ft | 10 kts | 138° |
| 2026-04-24 19:03 | 50.87932 | 7.12593 | 232 ft | 15 kts | 139° |
| 2026-04-24 19:03 | 50.87842 | 7.12618 | 232 ft | 12 kts | 166° |
| 2026-04-24 19:03 | 50.87777 | 7.12687 | 232 ft | 11 kts | 136° |
| 2026-04-24 19:04 | 50.87706 | 7.12791 | 232 ft | 22 kts | 137° |
| 2026-04-24 19:04 | 50.87566 | 7.12992 | 232 ft | 30 kts | 137° |
| 2026-04-24 19:04 | 50.87411 | 7.13218 | 232 ft | 31 kts | 137° |
| 2026-04-24 19:04 | 50.87253 | 7.13448 | 234 ft | 31 kts | 137° |
| 2026-04-24 19:05 | 50.87098 | 7.13671 | 240 ft | 30 kts | 138° |
| 2026-04-24 19:05 | 50.86948 | 7.13886 | 247 ft | 28 kts | 137° |
| 2026-04-24 19:05 | 50.86813 | 7.14081 | 255 ft | 26 kts | 137° |
| 2026-04-24 19:05 | 50.86668 | 7.14233 | 260 ft | 24 kts | 137° |
| 2026-04-24 19:06 | 50.86519 | 7.14450 | 265 ft | 33 kts | 138° |
| 2026-04-24 19:06 | 50.86357 | 7.14684 | 274 ft | 31 kts | 137° |
| 2026-04-24 19:06 | 50.86204 | 7.14904 | 283 ft | 29 kts | 137° |
| 2026-04-24 19:06 | 50.86062 | 7.15114 | 289 ft | 27 kts | 127° |
| 2026-04-24 19:07 | 50.86111 | 7.15350 | 292 ft | 26 kts | 19° |
| 2026-04-24 19:07 | 50.86312 | 7.15304 | 286 ft | 35 kts | 348° |
| 2026-04-24 19:07 | 50.86477 | 7.15188 | 281 ft | 44 kts | 321° |
| 2026-04-24 19:07 | 50.87055 | 7.14348 | 254 ft | 130 kts | 317° |
| 2026-04-24 19:08 | 50.87846 | 7.13206 | 467 ft | 163 kts | 317° |
| 2026-04-24 19:08 | 50.88677 | 7.12003 | 1328 ft | 162 kts | 318° |
| 2026-04-24 19:08 | 50.89693 | 7.11146 | 1751 ft | 181 kts | 355° |
| 2026-04-24 19:08 | 50.90972 | 7.11674 | 2025 ft | 206 kts | 27° |
| 2026-04-24 19:09 | 50.92261 | 7.12799 | 2692 ft | 212 kts | 27° |
| 2026-04-24 19:09 | 50.93461 | 7.14164 | 3514 ft | 217 kts | 47° |
| 2026-04-24 19:09 | 50.94299 | 7.16303 | 3959 ft | 241 kts | 61° |
| 2026-04-24 19:09 | 50.95085 | 7.18771 | 4533 ft | 257 kts | 62° |
| 2026-04-24 19:10 | 50.95878 | 7.21314 | 5385 ft | 262 kts | 62° |
| 2026-04-24 19:10 | 50.96690 | 7.23922 | 6272 ft | 266 kts | 61° |
| 2026-04-24 19:10 | 50.97520 | 7.26572 | 6928 ft | 271 kts | 61° |
| 2026-04-24 19:10 | 50.98364 | 7.29262 | 7586 ft | 274 kts | 61° |
| 2026-04-24 19:11 | 50.99221 | 7.31986 | 8434 ft | 277 kts | 62° |
| 2026-04-24 19:11 | 51.00086 | 7.34739 | 9242 ft | 281 kts | 62° |
| 2026-04-24 19:11 | 51.00965 | 7.37546 | 10048 ft | 286 kts | 64° |
| 2026-04-24 19:11 | 51.01575 | 7.40595 | 10760 ft | 293 kts | 79° |
| 2026-04-24 19:12 | 51.01653 | 7.43941 | 11105 ft | 316 kts | 96° |
| 2026-04-24 19:12 | 51.01105 | 7.47455 | 11314 ft | 340 kts | 107° |
| 2026-04-24 19:12 | 51.00366 | 7.51155 | 11477 ft | 363 kts | 107° |
| 2026-04-24 19:12 | 50.99588 | 7.55055 | 11880 ft | 376 kts | 107° |
| 2026-04-24 19:13 | 50.99063 | 7.57690 | 12289 ft | 379 kts | 107° |
| 2026-04-24 19:13 | 50.97998 | 7.63074 | 13174 ft | 385 kts | 107° |
| 2026-04-24 19:13 | 50.97465 | 7.65774 | 13610 ft | 388 kts | 107° |